sim
Sign-in with your pilot id or email,
or register
Callsign
Passwort

Schedule Details

Flight Number: OEC0718
Departure: Dresden Airport (EDDC) at Time
Arrival: Munich Airport (EDDM) at Time
Route: EDDC DCT MAREM T106 BAGMI EDDM

Weather Information
Getting current METAR information for EDDC 291650Z 26004KT 9999 FEW033 14/09 Q1017 NOSIG
Getting current METAR information for EDDM 291650Z 26007KT 9999 BKN017 11/09 Q1019 NOSIG

Schedule Frequency

Route Map